Los Sarmientos, Argentina
Current Conditions -  °F | °C
As of 12:00 AM on Sunday 26 Oct 2014 (Local Time) from SANT Reporting Station
Clear Clear  
Wind Chill: 79°   Ceiling: Unl
Heat Index: 79°   Visibility: 5mi
Dew Point: 52°   Wind: 9mph
Humidity: 39%   Direction: 360°N
Pressure: 29.77"   Gusts: NA
Location:  27.4°S, 65.68°W
Report Text: SANT 260300Z 36008KT 8000 NSC 26/11 Q1008
Loading
Personal Weather Stations






























Interactive Weather Map New forecast layout! Learn more

10-Day Weather Forecast

Advertisements
Track Severe Weather on mobile